Time,TemperatureF,DewpointF,PressureIn,WindDirection,WindDirectionDegrees,WindSpeedMPH,WindSpeedGustMPH,Humidity,HourlyPrecipIn,Conditions,Clouds,dailyrainin,SoftwareType,DateUTC
2013-04-22 00:00:00,42.2,35.5,30.56,WNW,288,3.0,7.0,77,0.00,,,0.00,Wunderground v.1.15,2013-04-22 04:00:00,
2013-04-22 00:05:00,42.1,35.4,30.56,NW,316,3.0,7.0,77,0.00,,,0.00,Wunderground v.1.15,2013-04-22 04:05:00,
2013-04-22 00:10:00,42.1,35.4,30.56,WNW,288,3.0,7.0,77,0.00,,,0.00,Wunderground v.1.15,2013-04-22 04:10:00,
2013-04-22 00:15:00,42.1,35.4,30.57,WNW,285,3.0,7.0,77,0.00,,,0.00,Wunderground v.1.15,2013-04-22 04:15:00,
2013-04-22 00:20:00,42.1,35.4,30.57,NW,312,3.0,7.0,77,0.00,,,0.00,Wunderground v.1.15,2013-04-22 04:20:00,
2013-04-22 00:25:00,42.1,35.4,30.57,WNW,290,4.0,7.0,77,0.00,,,0.00,Wunderground v.1.15,2013-04-22 04:25:00,
2013-04-22 00:30:00,42.0,35.0,30.57,NNW,328,4.0,7.0,76,0.00,,,0.00,Wunderground v.1.15,2013-04-22 04:30:00,
2013-04-22 00:40:00,41.9,34.9,30.57,WNW,293,3.0,3.0,76,0.00,,,0.00,Wunderground v.1.15,2013-04-22 04:40:00,
2013-04-22 00:45:00,41.8,35.1,30.57,WNW,284,2.0,7.0,77,0.00,,,0.00,Wunderground v.1.15,2013-04-22 04:45:00,
2013-04-22 00:50:00,41.6,34.9,30.56,WSW,248,1.0,7.0,77,0.00,,,0.00,Wunderground v.1.15,2013-04-22 04:50:00,
2013-04-22 00:55:00,41.6,34.9,30.56,West,259,1.0,7.0,77,0.00,,,0.00,Wunderground v.1.15,2013-04-22 04:55:00,
2013-04-22 01:00:00,41.5,34.8,30.56,West,259,1.0,1.0,77,0.00,,,0.00,Wunderground v.1.15,2013-04-22 05:00:00,
2013-04-22 01:10:00,41.1,34.4,30.56,West,259,0.0,7.0,77,0.00,,,0.00,Wunderground v.1.15,2013-04-22 05:10:00,
2013-04-22 01:15:00,41.1,34.8,30.56,West,259,0.0,7.0,78,0.00,,,0.00,Wunderground v.1.15,2013-04-22 05:15:00,
2013-04-22 01:20:00,41.1,34.8,30.56,SW,224,0.0,7.0,78,0.00,,,0.00,Wunderground v.1.15,2013-04-22 05:20:00,
2013-04-22 01:25:00,40.9,34.9,30.55,South,191,1.0,7.0,79,0.00,,,0.00,Wunderground v.1.15,2013-04-22 05:25:00,
2013-04-22 01:30:00,40.9,34.9,30.55,South,191,1.0,1.0,79,0.00,,,0.00,Wunderground v.1.15,2013-04-22 05:30:00,
2013-04-22 01:35:00,40.8,34.8,30.55,South,191,0.0,7.0,79,0.00,,,0.00,Wunderground v.1.15,2013-04-22 05:35:00,
2013-04-22 01:40:00,40.6,34.9,30.55,SSW,198,0.0,7.0,80,0.00,,,0.00,Wunderground v.1.15,2013-04-22 05:40:00,
2013-04-22 01:45:00,40.3,34.9,30.55,SSW,198,1.0,7.0,81,0.00,,,0.00,Wunderground v.1.15,2013-04-22 05:45:00,
2013-04-22 01:50:00,40.0,34.9,30.54,SSW,200,1.0,7.0,82,0.00,,,0.00,Wunderground v.1.15,2013-04-22 05:50:00,
2013-04-22 01:55:00,39.6,34.6,30.54,SSW,200,1.0,7.0,82,0.00,,,0.00,Wunderground v.1.15,2013-04-22 05:55:00,
2013-04-22 02:00:00,39.2,34.5,30.54,SW,214,1.0,7.0,83,0.00,,,0.00,Wunderground v.1.15,2013-04-22 06:00:00,
2013-04-22 02:10:00,38.8,34.4,30.54,SSW,212,1.0,7.0,84,0.00,,,0.00,Wunderground v.1.15,2013-04-22 06:10:00,
2013-04-22 02:20:00,38.4,34.3,30.53,SSW,207,2.0,2.0,85,0.00,,,0.00,Wunderground v.1.15,2013-04-22 06:20:00,
2013-04-22 02:25:00,38.2,34.1,30.53,SSW,207,1.0,7.0,85,0.00,,,0.00,Wunderground v.1.15,2013-04-22 06:25:00,
2013-04-22 02:30:00,38.1,34.0,30.53,SSW,210,1.0,7.0,85,0.00,,,0.00,Wunderground v.1.15,2013-04-22 06:30:00,
2013-04-22 02:35:00,38.1,34.0,30.53,SW,217,1.0,7.0,85,0.00,,,0.00,Wunderground v.1.15,2013-04-22 06:35:00,
2013-04-22 02:40:00,37.9,33.8,30.53,SW,214,1.0,1.0,85,0.00,,,0.00,Wunderground v.1.15,2013-04-22 06:40:00,
2013-04-22 02:45:00,37.5,33.7,30.53,SW,214,0.0,7.0,86,0.00,,,0.00,Wunderground v.1.15,2013-04-22 06:45:00,
2013-04-22 02:50:00,37.3,33.8,30.53,SW,214,0.0,7.0,87,0.00,,,0.00,Wunderground v.1.15,2013-04-22 06:50:00,
2013-04-22 02:55:00,37.2,33.7,30.53,SW,214,0.0,7.0,87,0.00,,,0.00,Wunderground v.1.15,2013-04-22 06:55:00,
2013-04-22 03:00:00,37.1,33.6,30.53,SSW,207,0.0,7.0,87,0.00,,,0.00,Wunderground v.1.15,2013-04-22 07:00:00,
2013-04-22 03:10:00,36.8,33.3,30.53,SW,214,0.0,7.0,87,0.00,,,0.00,Wunderground v.1.15,2013-04-22 07:10:00,
2013-04-22 03:15:00,36.6,33.1,30.53,SSW,210,0.0,7.0,87,0.00,,,0.00,Wunderground v.1.15,2013-04-22 07:15:00,
2013-04-22 03:25:00,36.6,32.8,30.54,SSW,201,1.0,7.0,86,0.00,,,0.00,Wunderground v.1.15,2013-04-22 07:25:00,
2013-04-22 03:30:00,36.6,32.8,30.54,SSW,201,0.0,7.0,86,0.00,,,0.00,Wunderground v.1.15,2013-04-22 07:30:00,
2013-04-22 03:35:00,36.4,32.6,30.54,SSW,201,0.0,7.0,86,0.00,,,0.00,Wunderground v.1.15,2013-04-22 07:35:00,
2013-04-22 03:40:00,36.2,32.7,30.54,SSW,193,0.0,7.0,87,0.00,,,0.00,Wunderground v.1.15,2013-04-22 07:40:00,
2013-04-22 03:45:00,35.9,32.4,30.54,SSW,195,1.0,7.0,87,0.00,,,0.00,Wunderground v.1.15,2013-04-22 07:45:00,
2013-04-22 03:55:00,36.0,32.5,30.55,SSW,195,1.0,7.0,87,0.00,,,0.00,Wunderground v.1.15,2013-04-22 07:55:00,
2013-04-22 04:00:00,36.0,32.5,30.55,SSW,208,1.0,7.0,87,0.00,,,0.00,Wunderground v.1.15,2013-04-22 08:00:00,
2013-04-22 04:10:00,35.7,32.2,30.55,SW,221,2.0,7.0,87,0.00,,,0.00,Wunderground v.1.15,2013-04-22 08:10:00,
2013-04-22 04:15:00,35.7,31.9,30.55,SSW,212,3.0,7.0,86,0.00,,,0.00,Wunderground v.1.15,2013-04-22 08:15:00,
2013-04-22 04:20:00,35.7,31.9,30.55,SSW,212,3.0,7.0,86,0.00,,,0.00,Wunderground v.1.15,2013-04-22 08:20:00,
2013-04-22 04:30:00,35.5,31.7,30.55,SSW,208,3.0,3.0,86,0.00,,,0.00,Wunderground v.1.15,2013-04-22 08:30:00,
2013-04-22 04:35:00,35.4,31.6,30.55,SSW,200,2.0,7.0,86,0.00,,,0.00,Wunderground v.1.15,2013-04-22 08:35:00,
2013-04-22 04:40:00,35.1,31.6,30.55,SSW,205,3.0,7.0,87,0.00,,,0.00,Wunderground v.1.15,2013-04-22 08:40:00,
2013-04-22 04:45:00,35.0,31.5,30.55,SSW,207,3.0,7.0,87,0.00,,,0.00,Wunderground v.1.15,2013-04-22 08:45:00,
2013-04-22 04:50:00,35.1,31.6,30.55,SSW,208,3.0,7.0,87,0.00,,,0.00,Wunderground v.1.15,2013-04-22 08:50:00,
2013-04-22 05:00:00,35.1,31.6,30.55,SW,215,3.0,3.0,87,0.00,,,0.00,Wunderground v.1.15,2013-04-22 09:00:00,
2013-04-22 05:10:00,34.8,31.3,30.55,SSW,212,3.0,7.0,87,0.00,,,0.00,Wunderground v.1.15,2013-04-22 09:10:00,
2013-04-22 05:15:00,34.9,31.4,30.55,SW,217,3.0,7.0,87,0.00,,,0.00,Wunderground v.1.15,2013-04-22 09:15:00,
2013-04-22 05:20:00,34.9,31.1,30.54,SSW,203,3.0,3.0,86,0.00,,,0.00,Wunderground v.1.15,2013-04-22 09:20:00,
2013-04-22 05:25:00,34.8,31.0,30.55,SSW,212,2.0,7.0,86,0.00,,,0.00,Wunderground v.1.15,2013-04-22 09:25:00,
2013-04-22 05:30:00,34.7,31.2,30.54,SW,217,3.0,7.0,87,0.00,,,0.00,Wunderground v.1.15,2013-04-22 09:30:00,
2013-04-22 05:35:00,34.9,31.1,30.54,SW,218,4.0,7.0,86,0.00,,,0.00,Wunderground v.1.15,2013-04-22 09:35:00,
2013-04-22 05:40:00,34.9,31.1,30.54,SSW,210,4.0,4.0,86,0.00,,,0.00,Wunderground v.1.15,2013-04-22 09:40:00,
2013-04-22 05:50:00,35.3,31.2,30.54,SW,214,3.0,7.0,85,0.00,,,0.00,Wunderground v.1.15,2013-04-22 09:50:00,
2013-04-22 05:55:00,35.4,31.3,30.54,SSW,211,4.0,7.0,85,0.00,,,0.00,Wunderground v.1.15,2013-04-22 09:55:00,
2013-04-22 06:00:00,35.7,31.6,30.54,SW,218,3.0,7.0,85,0.00,,,0.00,Wunderground v.1.15,2013-04-22 10:00:00,
2013-04-22 06:10:00,36.1,31.7,30.54,SSW,204,3.0,3.0,84,0.00,,,0.00,Wunderground v.1.15,2013-04-22 10:10:00,
2013-04-22 06:15:00,36.1,31.7,30.55,SW,215,3.0,7.0,84,0.00,,,0.00,Wunderground v.1.15,2013-04-22 10:15:00,
2013-04-22 06:20:00,36.2,31.5,30.55,SSW,205,3.0,7.0,83,0.00,,,0.00,Wunderground v.1.15,2013-04-22 10:20:00,
2013-04-22 06:25:00,36.3,31.6,30.55,SW,221,2.0,7.0,83,0.00,,,0.00,Wunderground v.1.15,2013-04-22 10:25:00,
2013-04-22 06:30:00,36.5,31.8,30.55,WSW,243,3.0,7.0,83,0.00,,,0.00,Wunderground v.1.15,2013-04-22 10:30:00,
2013-04-22 06:40:00,37.2,31.9,30.55,WSW,245,6.0,7.0,81,0.00,,,0.00,Wunderground v.1.15,2013-04-22 10:40:00,
2013-04-22 06:45:00,37.5,31.9,30.55,WSW,248,5.0,7.0,80,0.00,,,0.00,Wunderground v.1.15,2013-04-22 10:45:00,
2013-04-22 06:50:00,37.7,32.1,30.56,WSW,244,3.0,7.0,80,0.00,,,0.00,Wunderground v.1.15,2013-04-22 10:50:00,
2013-04-22 06:55:00,38.0,32.1,30.56,WSW,240,2.0,7.0,79,0.00,,,0.00,Wunderground v.1.15,2013-04-22 10:55:00,
2013-04-22 07:00:00,38.6,32.6,30.55,SW,233,1.0,7.0,79,0.00,,,0.00,Wunderground v.1.15,2013-04-22 11:00:00,
2013-04-22 07:10:00,38.4,32.1,30.55,SW,224,1.0,7.0,78,0.00,,,0.00,Wunderground v.1.15,2013-04-22 11:10:00,
2013-04-22 07:15:00,38.3,32.0,30.56,WSW,252,2.0,7.0,78,0.00,,,0.00,Wunderground v.1.15,2013-04-22 11:15:00,
2013-04-22 07:20:00,38.3,31.7,30.56,WSW,241,3.0,7.0,77,0.00,,,0.00,Wunderground v.1.15,2013-04-22 11:20:00,
2013-04-22 07:25:00,38.4,31.5,30.56,WSW,245,4.0,7.0,76,0.00,,,0.00,Wunderground v.1.15,2013-04-22 11:25:00,
2013-04-22 07:30:00,38.6,31.7,30.56,WSW,246,5.0,5.0,76,0.00,,,0.00,Wunderground v.1.15,2013-04-22 11:30:00,
2013-04-22 07:35:00,38.9,31.6,30.56,WSW,248,5.0,6.0,75,0.00,,,0.00,Wunderground v.1.15,2013-04-22 11:35:00,
2013-04-22 07:45:00,39.4,31.5,30.55,WSW,248,5.0,7.0,73,0.00,,,0.00,Wunderground v.1.15,2013-04-22 11:45:00,
2013-04-22 07:50:00,39.7,31.8,30.56,SW,218,5.0,5.0,73,0.00,,,0.00,Wunderground v.1.15,2013-04-22 11:50:00,
2013-04-22 07:55:00,40.0,32.0,30.56,West,262,4.0,6.0,73,0.00,,,0.00,Wunderground v.1.15,2013-04-22 11:55:00,
2013-04-22 08:00:00,40.2,32.2,30.55,SSW,201,5.0,5.0,73,0.00,,,0.00,Wunderground v.1.15,2013-04-22 12:00:00,
2013-04-22 08:10:00,40.2,32.2,30.56,WSW,256,7.0,7.0,73,0.00,,,0.00,Wunderground v.1.15,2013-04-22 12:10:00,
2013-04-22 08:15:00,40.2,32.2,30.56,WSW,242,8.0,8.0,73,0.00,,,0.00,Wunderground v.1.15,2013-04-22 12:15:00,
2013-04-22 08:20:00,40.3,32.3,30.56,WSW,240,8.0,8.0,73,0.00,,,0.00,Wunderground v.1.15,2013-04-22 12:20:00,
2013-04-22 08:25:00,40.5,32.9,30.56,WSW,240,8.0,9.0,74,0.00,,,0.00,Wunderground v.1.15,2013-04-22 12:25:00,
2013-04-22 08:30:00,40.7,32.7,30.56,WSW,252,9.0,9.0,73,0.00,,,0.00,Wunderground v.1.15,2013-04-22 12:30:00,
2013-04-22 08:35:00,41.0,33.0,30.56,West,263,8.0,9.0,73,0.00,,,0.00,Wunderground v.1.15,2013-04-22 12:35:00,
2013-04-22 08:40:00,41.3,33.3,30.56,West,259,7.0,7.0,73,0.00,,,0.00,Wunderground v.1.15,2013-04-22 12:40:00,
2013-04-22 08:50:00,41.7,33.0,30.57,WSW,252,8.0,9.0,71,0.00,,,0.00,Wunderground v.1.15,2013-04-22 12:50:00,
2013-04-22 08:55:00,42.1,33.0,30.57,WSW,248,8.0,9.0,70,0.00,,,0.00,Wunderground v.1.15,2013-04-22 12:55:00,
2013-04-22 09:00:00,42.3,32.8,30.56,WSW,242,8.0,13.0,69,0.00,,,0.00,Wunderground v.1.15,2013-04-22 13:00:00,
2013-04-22 09:10:00,42.7,33.2,30.56,WSW,242,10.0,10.0,69,0.00,,,0.00,Wunderground v.1.15,2013-04-22 13:10:00,
2013-04-22 09:15:00,43.1,33.3,30.55,WSW,246,8.0,10.0,68,0.00,,,0.00,Wunderground v.1.15,2013-04-22 13:15:00,
2013-04-22 09:20:00,43.5,32.1,30.55,West,266,8.0,8.0,64,0.00,,,0.00,Wunderground v.1.15,2013-04-22 13:20:00,
2013-04-22 09:25:00,43.9,32.9,30.54,WNW,285,8.0,18.0,65,0.00,,,0.00,Wunderground v.1.15,2013-04-22 13:25:00,
2013-04-22 09:30:00,44.2,33.2,30.55,West,264,9.0,10.0,65,0.00,,,0.00,Wunderground v.1.15,2013-04-22 13:30:00,
2013-04-22 09:35:00,44.4,33.0,30.55,WSW,246,10.0,13.0,64,0.00,,,0.00,Wunderground v.1.15,2013-04-22 13:35:00,
2013-04-22 09:40:00,44.2,32.8,30.55,SSW,201,9.0,9.0,64,0.00,,,0.00,Wunderground v.1.15,2013-04-22 13:40:00,
2013-04-22 09:45:00,44.8,32.6,30.55,West,267,8.0,9.0,62,0.00,,,0.00,Wunderground v.1.15,2013-04-22 13:45:00,
2013-04-22 09:55:00,45.0,33.2,30.55,WSW,249,8.0,12.0,63,0.00,,,0.00,Wunderground v.1.15,2013-04-22 13:55:00,
2013-04-22 10:00:00,45.2,32.5,30.55,SSW,208,8.0,8.0,61,0.00,,,0.00,Wunderground v.1.15,2013-04-22 14:00:00,
2013-04-22 10:10:00,45.9,31.9,30.55,WSW,256,9.0,10.0,58,0.00,,,0.00,Wunderground v.1.15,2013-04-22 14:10:00,
2013-04-22 10:15:00,46.0,32.0,30.55,WNW,285,10.0,10.0,58,0.00,,,0.00,Wunderground v.1.15,2013-04-22 14:15:00,
2013-04-22 10:20:00,46.7,31.8,30.54,WSW,257,9.0,11.0,56,0.00,,,0.00,Wunderground v.1.15,2013-04-22 14:20:00,
2013-04-22 10:30:00,46.5,31.2,30.54,WSW,249,11.0,11.0,55,0.00,,,0.00,Wunderground v.1.15,2013-04-22 14:30:00,
2013-04-22 10:35:00,46.7,30.9,30.54,West,264,11.0,11.0,54,0.00,,,0.00,Wunderground v.1.15,2013-04-22 14:35:00,
2013-04-22 10:40:00,47.2,32.3,30.54,WSW,242,10.0,10.0,56,0.00,,,0.00,Wunderground v.1.15,2013-04-22 14:40:00,
2013-04-22 10:45:00,47.1,31.7,30.54,West,275,10.0,10.0,55,0.00,,,0.00,Wunderground v.1.15,2013-04-22 14:45:00,
2013-04-22 10:50:00,47.1,31.7,30.54,WNW,300,9.0,9.0,55,0.00,,,0.00,Wunderground v.1.15,2013-04-22 14:50:00,
2013-04-22 11:00:00,47.3,31.0,30.54,WSW,242,9.0,9.0,53,0.00,,,0.00,Wunderground v.1.15,2013-04-22 15:00:00,
2013-04-22 11:10:00,48.1,33.1,30.53,West,259,9.0,12.0,56,0.00,,,0.00,Wunderground v.1.15,2013-04-22 15:10:00,
2013-04-22 11:15:00,47.9,32.0,30.52,WSW,244,9.0,13.0,54,0.00,,,0.00,Wunderground v.1.15,2013-04-22 15:15:00,
2013-04-22 11:20:00,47.4,32.0,30.53,South,187,11.0,11.0,55,0.00,,,0.00,Wunderground v.1.15,2013-04-22 15:20:00,
2013-04-22 11:25:00,47.7,33.2,30.52,West,260,10.0,11.0,57,0.00,,,0.00,Wunderground v.1.15,2013-04-22 15:25:00,
2013-04-22 11:35:00,49.0,33.5,30.52,SW,219,6.0,7.0,55,0.00,,,0.00,Wunderground v.1.15,2013-04-22 15:35:00,
2013-04-22 11:40:00,48.7,32.3,30.52,WNW,288,8.0,9.0,53,0.00,,,0.00,Wunderground v.1.15,2013-04-22 15:40:00,
2013-04-22 11:45:00,48.6,33.6,30.52,SW,217,9.0,9.0,56,0.00,,,0.00,Wunderground v.1.15,2013-04-22 15:45:00,
2013-04-22 11:50:00,48.9,33.4,30.53,WSW,254,8.0,9.0,55,0.00,,,0.00,Wunderground v.1.15,2013-04-22 15:50:00,
2013-04-22 12:00:00,49.1,33.6,30.52,SW,217,9.0,9.0,55,0.00,,,0.00,Wunderground v.1.15,2013-04-22 16:00:00,
2013-04-22 12:15:00,49.2,33.7,30.52,WSW,238,7.0,11.0,55,0.00,,,0.00,Wunderground v.1.15,2013-04-22 16:15:00,
2013-04-22 12:20:00,49.4,34.3,30.51,SW,222,7.0,8.0,56,0.00,,,0.00,Wunderground v.1.15,2013-04-22 16:20:00,
2013-04-22 12:45:00,50.5,33.0,30.50,NW,305,9.0,9.0,51,0.00,,,0.00,Wunderground v.1.15,2013-04-22 16:45:00,
2013-04-22 12:50:00,50.6,32.6,30.50,WSW,242,9.0,13.0,50,0.00,,,0.00,Wunderground v.1.15,2013-04-22 16:50:00,
2013-04-22 12:55:00,50.5,32.5,30.50,WSW,240,11.0,13.0,50,0.00,,,0.00,Wunderground v.1.15,2013-04-22 16:55:00,
2013-04-22 13:05:00,50.4,32.4,30.50,WSW,240,11.0,18.0,50,0.00,,,0.00,Wunderground v.1.15,2013-04-22 17:05:00,
2013-04-22 13:15:00,50.8,32.8,30.49,WSW,240,12.0,12.0,50,0.00,,,0.00,Wunderground v.1.15,2013-04-22 17:15:00,
2013-04-22 13:20:00,51.2,33.2,30.48,West,274,9.0,10.0,50,0.00,,,0.00,Wunderground v.1.15,2013-04-22 17:20:00,
2013-04-22 13:25:00,51.9,32.8,30.48,WNW,290,8.0,11.0,48,0.00,,,0.00,Wunderground v.1.15,2013-04-22 17:25:00,
2013-04-22 13:30:00,51.8,32.7,30.48,WSW,240,9.0,12.0,48,0.00,,,0.00,Wunderground v.1.15,2013-04-22 17:30:00,
2013-04-22 13:35:00,51.9,33.8,30.48,West,278,9.0,12.0,50,0.00,,,0.00,Wunderground v.1.15,2013-04-22 17:35:00,
2013-04-22 15:05:00,-999.9,-99.9,-32.77,North,32767,-999.0,20.0,255,-99.99,,,0.00,Wunderground v.1.15,2013-04-22 19:05:00,
2013-04-22 15:15:00,52.2,33.6,30.44,West,262,11.0,21.0,49,0.00,,,0.00,Wunderground v.1.15,2013-04-22 19:15:00,
2013-04-22 15:20:00,52.8,34.2,30.45,WSW,248,12.0,12.0,49,0.00,,,0.00,Wunderground v.1.15,2013-04-22 19:20:00,
2013-04-22 15:30:00,52.2,33.1,30.44,WSW,252,12.0,12.0,48,0.00,,,0.00,Wunderground v.1.15,2013-04-22 19:30:00,
2013-04-22 15:40:00,52.4,33.3,30.44,SW,220,10.0,20.0,48,0.00,,,0.00,Wunderground v.1.15,2013-04-22 19:40:00,
2013-04-22 15:50:00,52.4,32.7,30.43,West,275,10.0,20.0,47,0.00,,,0.00,Wunderground v.1.15,2013-04-22 19:50:00,
2013-04-22 15:55:00,52.4,33.3,30.44,NW,321,9.0,20.0,48,0.00,,,0.00,Wunderground v.1.15,2013-04-22 19:55:00,
2013-04-22 16:00:00,52.6,34.0,30.43,West,269,9.0,20.0,49,0.00,,,0.00,Wunderground v.1.15,2013-04-22 20:00:00,
2013-04-22 16:10:00,52.8,33.6,30.43,WSW,248,10.0,20.0,48,0.00,,,0.00,Wunderground v.1.15,2013-04-22 20:10:00,
2013-04-22 16:20:00,51.9,33.3,30.43,WSW,244,12.0,12.0,49,0.00,,,0.00,Wunderground v.1.15,2013-04-22 20:20:00,
2013-04-22 16:30:00,52.0,33.4,30.43,WSW,252,10.0,19.0,49,0.00,,,0.00,Wunderground v.1.15,2013-04-22 20:30:00,
2013-04-22 16:35:00,52.0,33.4,30.43,West,277,11.0,19.0,49,0.00,,,0.00,Wunderground v.1.15,2013-04-22 20:35:00,
2013-04-22 16:45:00,52.5,33.9,30.43,WSW,243,10.0,21.0,49,0.00,,,0.00,Wunderground v.1.15,2013-04-22 20:45:00,
2013-04-22 16:50:00,51.8,32.7,30.42,WSW,256,13.0,13.0,48,0.00,,,0.00,Wunderground v.1.15,2013-04-22 20:50:00,
2013-04-22 17:00:00,51.8,34.2,30.43,West,259,10.0,22.0,51,0.00,,,0.00,Wunderground v.1.15,2013-04-22 21:00:00,
2013-04-22 17:10:00,51.6,34.0,30.43,WSW,248,11.0,22.0,51,0.00,,,0.00,Wunderground v.1.15,2013-04-22 21:10:00,
2013-04-22 17:15:00,51.4,33.9,30.43,SW,228,11.0,22.0,51,0.00,,,0.00,Wunderground v.1.15,2013-04-22 21:15:00,
2013-04-22 17:25:00,51.1,33.1,30.42,WSW,246,12.0,22.0,50,0.00,,,0.00,Wunderground v.1.15,2013-04-22 21:25:00,
2013-04-22 17:30:00,50.6,32.1,30.42,WSW,252,13.0,20.0,49,0.00,,,0.00,Wunderground v.1.15,2013-04-22 21:30:00,
2013-04-22 17:40:00,50.6,32.1,30.42,WNW,290,13.0,13.0,49,0.00,,,0.00,Wunderground v.1.15,2013-04-22 21:40:00,
2013-04-22 17:50:00,50.7,32.2,30.42,WNW,297,10.0,17.0,49,0.00,,,0.00,Wunderground v.1.15,2013-04-22 21:50:00,
2013-04-22 18:00:00,50.3,31.8,30.42,West,277,12.0,22.0,49,0.00,,,0.00,Wunderground v.1.15,2013-04-22 22:00:00,
2013-04-22 18:10:00,50.0,31.6,30.42,WSW,241,12.0,22.0,49,0.00,,,0.00,Wunderground v.1.15,2013-04-22 22:10:00,
2013-04-22 18:20:00,50.0,32.6,30.41,WSW,257,10.0,10.0,51,0.00,,,0.00,Wunderground v.1.15,2013-04-22 22:20:00,
2013-04-22 18:25:00,49.9,32.0,30.41,WSW,243,10.0,16.0,50,0.00,,,0.00,Wunderground v.1.15,2013-04-22 22:25:00,
2013-04-22 18:35:00,49.8,32.4,30.41,WSW,256,12.0,21.0,51,0.00,,,0.00,Wunderground v.1.15,2013-04-22 22:35:00,
2013-04-22 18:45:00,49.9,32.5,30.41,WSW,245,7.0,13.0,51,0.00,,,0.00,Wunderground v.1.15,2013-04-22 22:45:00,
2013-04-22 18:55:00,49.5,31.6,30.42,WSW,250,11.0,21.0,50,0.00,,,0.00,Wunderground v.1.15,2013-04-22 22:55:00,
2013-04-22 19:00:00,49.3,31.9,30.41,WSW,256,10.0,20.0,51,0.00,,,0.00,Wunderground v.1.15,2013-04-22 23:00:00,
2013-04-22 19:10:00,49.0,31.2,30.41,WSW,243,13.0,20.0,50,0.00,,,0.00,Wunderground v.1.15,2013-04-22 23:10:00,
2013-04-22 19:15:00,48.9,31.1,30.41,West,264,13.0,20.0,50,0.00,,,0.00,Wunderground v.1.15,2013-04-22 23:15:00,
2013-04-22 19:30:00,48.5,30.2,30.41,WNW,283,12.0,12.0,49,0.00,,,0.00,Wunderground v.1.15,2013-04-22 23:30:00,
2013-04-22 19:35:00,48.4,30.1,30.41,WSW,252,12.0,13.0,49,0.00,,,0.00,Wunderground v.1.15,2013-04-22 23:35:00,
2013-04-22 19:45:00,48.0,30.2,30.42,WNW,284,9.0,21.0,50,0.00,,,0.00,Wunderground v.1.15,2013-04-22 23:45:00,
2013-04-22 19:50:00,47.8,30.5,30.42,WSW,252,8.0,8.0,51,0.00,,,0.00,Wunderground v.1.15,2013-04-22 23:50:00,
2013-04-22 19:55:00,47.5,30.3,30.42,West,263,9.0,9.0,51,0.00,,,0.00,Wunderground v.1.15,2013-04-22 23:55:00,
2013-04-22 20:00:00,47.3,30.5,30.42,West,264,8.0,21.0,52,0.00,,,0.00,Wunderground v.1.15,2013-04-23 00:00:00,
2013-04-22 20:10:00,46.8,30.6,30.42,WSW,249,7.0,7.0,53,0.00,,,0.00,Wunderground v.1.15,2013-04-23 00:10:00,
2013-04-22 20:15:00,46.6,30.8,30.43,SW,233,6.0,8.0,54,0.00,,,0.00,Wunderground v.1.15,2013-04-23 00:15:00,
2013-04-22 20:25:00,46.2,31.8,30.43,West,276,6.0,21.0,57,0.00,,,0.00,Wunderground v.1.15,2013-04-23 00:25:00,
2013-04-22 20:30:00,46.1,32.1,30.43,West,277,8.0,13.0,58,0.00,,,0.00,Wunderground v.1.15,2013-04-23 00:30:00,
2013-04-22 20:40:00,45.7,32.2,30.43,WNW,297,7.0,7.0,59,0.00,,,0.00,Wunderground v.1.15,2013-04-23 00:40:00,
2013-04-22 20:50:00,45.4,32.3,30.43,West,269,6.0,13.0,60,0.00,,,0.00,Wunderground v.1.15,2013-04-23 00:50:00,
2013-04-22 20:55:00,45.3,32.2,30.43,WSW,245,6.0,13.0,60,0.00,,,0.00,Wunderground v.1.15,2013-04-23 00:55:00,
2013-04-22 21:00:00,45.1,32.4,30.43,West,266,5.0,5.0,61,0.00,,,0.00,Wunderground v.1.15,2013-04-23 01:00:00,
2013-04-22 21:10:00,44.8,32.2,30.43,WSW,238,4.0,4.0,61,0.00,,,0.00,Wunderground v.1.15,2013-04-23 01:10:00,
2013-04-22 21:20:00,44.7,32.5,30.44,WSW,252,6.0,16.0,62,0.00,,,0.00,Wunderground v.1.15,2013-04-23 01:20:00,
2013-04-22 21:30:00,44.3,32.9,30.44,West,273,4.0,11.0,64,0.00,,,0.00,Wunderground v.1.15,2013-04-23 01:30:00,
2013-04-22 21:40:00,44.1,33.1,30.44,WSW,253,4.0,4.0,65,0.00,,,0.00,Wunderground v.1.15,2013-04-23 01:40:00,
2013-04-22 21:45:00,43.9,32.9,30.44,WSW,251,3.0,5.0,65,0.00,,,0.00,Wunderground v.1.15,2013-04-23 01:45:00,
2013-04-22 21:55:00,43.9,32.9,30.44,WSW,245,4.0,11.0,65,0.00,,,0.00,Wunderground v.1.15,2013-04-23 01:55:00,
2013-04-22 22:00:00,43.7,33.1,30.44,WSW,245,4.0,4.0,66,0.00,,,0.00,Wunderground v.1.15,2013-04-23 02:00:00,
2013-04-22 22:10:00,43.3,32.7,30.43,WSW,239,3.0,10.0,66,0.00,,,0.00,Wunderground v.1.15,2013-04-23 02:10:00,
2013-04-22 22:15:00,43.1,32.9,30.44,WSW,240,3.0,10.0,67,0.00,,,0.00,Wunderground v.1.15,2013-04-23 02:15:00,
2013-04-22 22:25:00,42.8,33.0,30.43,WSW,241,3.0,10.0,68,0.00,,,0.00,Wunderground v.1.15,2013-04-23 02:25:00,
2013-04-22 22:35:00,42.5,33.0,30.43,SW,214,3.0,5.0,69,0.00,,,0.00,Wunderground v.1.15,2013-04-23 02:35:00,
2013-04-22 22:45:00,42.3,33.2,30.42,WSW,252,3.0,5.0,70,0.00,,,0.00,Wunderground v.1.15,2013-04-23 02:45:00,
2013-04-22 22:50:00,42.4,33.7,30.42,SW,224,4.0,6.0,71,0.00,,,0.00,Wunderground v.1.15,2013-04-23 02:50:00,
2013-04-22 23:00:00,42.4,34.0,30.42,SW,233,4.0,7.0,72,0.00,,,0.00,Wunderground v.1.15,2013-04-23 03:00:00,
2013-04-22 23:10:00,42.4,34.0,30.42,SW,236,5.0,7.0,72,0.00,,,0.00,Wunderground v.1.15,2013-04-23 03:10:00,
2013-04-22 23:20:00,42.4,34.4,30.41,SW,233,4.0,4.0,73,0.00,,,0.00,Wunderground v.1.15,2013-04-23 03:20:00,
2013-04-22 23:25:00,42.4,34.4,30.42,WSW,242,4.0,7.0,73,0.00,,,0.00,Wunderground v.1.15,2013-04-23 03:25:00,
2013-04-22 23:35:00,42.3,34.6,30.42,SW,219,3.0,8.0,74,0.00,,,0.00,Wunderground v.1.15,2013-04-23 03:35:00,
2013-04-22 23:40:00,42.3,34.6,30.42,SW,224,3.0,8.0,74,0.00,,,0.00,Wunderground v.1.15,2013-04-23 03:40:00,
2013-04-22 23:50:00,42.3,34.6,30.41,SW,221,5.0,5.0,74,0.00,,,0.00,Wunderground v.1.15,2013-04-23 03:50:00,